Terminal Aerodrome Forecast
Issued by NWS

Home | Current Version | Previous Version | Text Only | Print | Product List | Glossary On
Versions: 1 2 3 4 5 6 7 8 9 10 11 12 13
000
FTUS41 KLWX 231729
TAFMTN
TAF
KMTN 231729Z 2318/2418 19009KT P6SM BKN030
     FM232200 21013KT P6SM BKN035
     FM240000 22012KT P6SM BKN080
     FM240300 23010KT 6SM -SHRA BKN070
     FM240600 23009KT 4SM SHRA OVC060
     FM241100 28008KT P6SM OVC040
     FM241700 28011G19KT P6SM SCT250=

USA.gov is the U.S. government's official web portal to all federal, state and local government web resources and services.